Time;durP1;ratioP1;P1;durP2;ratioP2;P2;SDS_P1;SDS_P2;PMS_P1;PMS_P2;Temp;Humidity;BMP_temperature;BMP_pressure;BME280_temperature;BME280_humidity;BME280_pressure;Samples;Min_cycle;Max_cycle;Signal;HPM_P1;HPM_P2
2021/07/28 02:46:58;;;;;;;;;;;18.60;99.90;;;;;;5;36053269;41315006;-86
2021/07/28 02:50:16;;;;;;;;;;;18.50;99.90;;;;;;5;36017611;42021986;-88
2021/07/28 02:53:36;;;;;;;;;;;18.50;99.90;;;;;;5;36019460;41271313;-86
2021/07/28 02:56:55;;;;;;;;;;;18.60;99.90;;;;;;5;36020111;41273878;-88
2021/07/28 03:00:10;;;;;;;;;;;18.60;99.90;;;;;;5;36019105;41270813;-88
2021/07/28 03:03:27;;;;;;;;;;;18.70;99.90;;;;;;5;36019227;41270634;-88
2021/07/28 03:06:47;;;;;;;;;;;18.70;99.90;;;;;;5;36018363;41271302;-87
2021/07/28 03:10:06;;;;;;;;;;;18.70;99.90;;;;;;5;36018979;41272111;-88
2021/07/28 03:13:21;;;;;;;;;;;18.80;99.90;;;;;;5;36019071;41271979;-88
2021/07/28 03:16:41;;;;;;;;;;;18.80;99.90;;;;;;5;36018026;41270835;-88
2021/07/28 03:20:00;;;;;;;;;;;18.80;99.90;;;;;;5;36016847;41272610;-85
2021/07/28 03:23:21;;;;;;;;;;;18.70;99.90;;;;;;5;36017719;42021625;-85
2021/07/28 03:26:35;;;;;;;;;;;18.70;99.90;;;;;;5;36018405;41271848;-86
2021/07/28 03:29:52;;;;;;;;;;;18.70;99.90;;;;;;5;36018352;41270066;-86
2021/07/28 03:33:12;;;;;;;;;;;18.80;99.90;;;;;;5;36018092;41270485;-87
2021/07/28 03:36:31;;;;;;;;;;;18.80;99.90;;;;;;5;36019032;41271774;-86
2021/07/28 03:39:45;;;;;;;;;;;18.70;99.90;;;;;;5;36018622;41271713;-87
2021/07/28 03:43:03;;;;;;;;;;;18.70;99.90;;;;;;5;36017143;41271931;-86
2021/07/28 03:46:22;;;;;;;;;;;18.70;99.90;;;;;;5;36017826;41271644;-86
2021/07/28 03:49:42;;;;;;;;;;;18.80;99.90;;;;;;5;36019244;41271239;-86
2021/07/28 03:52:57;;;;;;;;;;;18.80;99.90;;;;;;5;36019954;41271778;-87
2021/07/28 03:56:17;;;;;;;;;;;18.80;99.90;;;;;;5;36017640;42021445;-88
2021/07/28 03:59:37;;;;;;;;;;;18.70;99.90;;;;;;5;36020018;41272596;-87
2021/07/28 04:02:56;;;;;;;;;;;18.70;99.90;;;;;;5;36018470;41280939;-87
2021/07/28 04:06:11;;;;;;;;;;;18.80;99.90;;;;;;5;36021232;41272216;-87
2021/07/28 04:09:28;;;;;;;;;;;18.90;99.90;;;;;;5;36018596;41273372;-89
2021/07/28 04:12:47;;;;;;;;;;;18.80;99.90;;;;;;5;36018453;41271439;-88
2021/07/28 04:16:07;;;;;;;;;;;18.80;99.90;;;;;;5;36018147;41272280;-87
2021/07/28 04:19:21;;;;;;;;;;;18.90;99.90;;;;;;5;36017466;41271528;-85
2021/07/28 04:22:38;;;;;;;;;;;18.90;99.90;;;;;;5;36018399;41272432;-86
2021/07/28 04:25:58;;;;;;;;;;;18.90;99.90;;;;;;5;36019066;41272086;-87
2021/07/28 04:29:19;;;;;;;;;;;18.90;99.90;;;;;;5;36018089;42020394;-87
2021/07/28 04:32:34;;;;;;;;;;;19.00;99.90;;;;;;5;36017933;41272141;-87
2021/07/28 04:35:51;;;;;;;;;;;19.00;99.90;;;;;;5;36019619;41270875;-89
2021/07/28 04:39:10;;;;;;;;;;;19.00;99.90;;;;;;5;36016984;41270711;-86
2021/07/28 04:42:30;;;;;;;;;;;19.00;99.90;;;;;;5;36020581;41271003;-85
2021/07/28 04:45:44;;;;;;;;;;;19.00;99.90;;;;;;5;36020724;41271992;-87
2021/07/28 04:49:02;;;;;;;;;;;19.10;99.90;;;;;;5;36016582;41269998;-85
2021/07/28 04:52:24;;;;;;;;;;;19.20;99.90;;;;;;5;36016262;41271385;-88
2021/07/28 04:55:50;;;;;;;;;;;19.30;99.90;;;;;;5;36017288;41270927;-90
2021/07/28 04:59:04;;;;;;;;;;;19.40;99.90;;;;;;5;36019353;41269987;-89
2021/07/28 05:02:25;;;;;;;;;;;19.50;99.90;;;;;;5;36017989;42020178;-90
2021/07/28 05:05:45;;;;;;;;;;;19.50;99.90;;;;;;5;36018742;41270662;-88
2021/07/28 05:09:05;;;;;;;;;;;19.60;99.90;;;;;;5;36016948;41271667;-87
2021/07/28 05:12:19;;;;;;;;;;;19.70;99.90;;;;;;5;36019995;41271144;-89
2021/07/28 05:15:36;;;;;;;;;;;19.70;99.90;;;;;;5;36018833;41271067;-90
2021/07/28 05:18:55;;;;;;;;;;;19.80;99.90;;;;;;5;36018968;41270723;-90
2021/07/28 05:22:15;;;;;;;;;;;19.80;99.90;;;;;;5;36019456;41271712;-89
2021/07/28 05:25:29;;;;;;;;;;;19.90;99.90;;;;;;5;36017974;41270293;-87
2021/07/28 05:28:47;;;;;;;;;;;20.00;99.90;;;;;;5;36017523;41271825;-88
2021/07/28 05:32:06;;;;;;;;;;;20.00;99.90;;;;;;5;36018026;41272466;-87
2021/07/28 05:35:27;;;;;;;;;;;19.90;99.90;;;;;;5;36017159;42021624;-88
2021/07/28 05:38:41;;;;;;;;;;;19.90;99.90;;;;;;5;36019307;41271413;-85
2021/07/28 05:41:59;;;;;;;;;;;20.00;99.90;;;;;;5;36018354;41270645;-88
2021/07/28 05:45:18;;;;;;;;;;;19.90;99.90;;;;;;5;36018691;41271323;-88
2021/07/28 05:48:38;;;;;;;;;;;19.90;99.90;;;;;;5;36018198;41272370;-87
2021/07/28 05:51:52;;;;;;;;;;;19.90;99.90;;;;;;5;36018500;41270347;-88
2021/07/28 05:55:09;;;;;;;;;;;19.90;99.90;;;;;;5;36016983;41270676;-89
2021/07/28 05:58:29;;;;;;;;;;;19.90;99.90;;;;;;5;36018622;41271685;-87
2021/07/28 06:01:48;;;;;;;;;;;19.90;99.90;;;;;;5;36019012;41272857;-86
2021/07/28 06:05:02;;;;;;;;;;;19.90;99.90;;;;;;5;36018819;41271264;-86
2021/07/28 06:08:21;;;;;;;;;;;19.90;99.90;;;;;;5;36018583;42023714;-85
2021/07/28 06:11:40;;;;;;;;;;;19.90;99.90;;;;;;5;36020589;41271894;-86
2021/07/28 06:15:00;;;;;;;;;;;19.80;99.90;;;;;;5;36019172;41271919;-86
2021/07/28 06:18:15;;;;;;;;;;;19.70;99.90;;;;;;5;36018214;41271935;-86
2021/07/28 06:21:32;;;;;;;;;;;19.50;99.90;;;;;;5;36019584;41272010;-87
2021/07/28 06:24:51;;;;;;;;;;;19.40;99.90;;;;;;5;36019325;41271461;-86
2021/07/28 06:28:11;;;;;;;;;;;19.30;99.90;;;;;;5;36019381;41271820;-86
2021/07/28 06:31:25;;;;;;;;;;;19.10;99.90;;;;;;5;36019169;41272452;-85
2021/07/28 06:34:42;;;;;;;;;;;19.00;99.90;;;;;;5;36018470;41269554;-86
2021/07/28 06:38:03;;;;;;;;;;;19.00;99.90;;;;;;5;36017410;41273030;-87
2021/07/28 06:41:23;;;;;;;;;;;18.90;99.90;;;;;;5;36014655;42018638;-86
2021/07/28 06:44:38;;;;;;;;;;;18.90;99.90;;;;;;5;36020043;41272483;-86
2021/07/28 06:47:55;;;;;;;;;;;18.80;99.90;;;;;;5;36018309;41271554;-88
2021/07/28 06:51:14;;;;;;;;;;;18.80;99.90;;;;;;5;36017417;41269748;-88
2021/07/28 06:54:34;;;;;;;;;;;18.80;99.90;;;;;;5;36018767;41270166;-89
2021/07/28 06:57:48;;;;;;;;;;;18.80;99.90;;;;;;5;36017356;41270110;-86
2021/07/28 07:01:07;;;;;;;;;;;18.80;99.90;;;;;;5;36017718;41270907;-89
2021/07/28 07:04:26;;;;;;;;;;;18.80;99.90;;;;;;5;36016653;41271251;-86
2021/07/28 07:07:50;;;;;;;;;;;18.70;99.90;;;;;;5;36016277;41269218;-86
2021/07/28 07:11:04;;;;;;;;;;;18.70;99.90;;;;;;5;36018576;41270726;-86
2021/07/28 07:14:23;;;;;;;;;;;18.60;99.90;;;;;;5;36017847;42020498;-86
2021/07/28 07:17:42;;;;;;;;;;;18.60;99.90;;;;;;5;36016315;41272248;-88
2021/07/28 07:21:02;;;;;;;;;;;18.50;99.90;;;;;;5;36018564;41270926;-86
2021/07/28 07:24:16;;;;;;;;;;;18.50;99.90;;;;;;5;36018058;41271001;-88
2021/07/28 07:27:33;;;;;;;;;;;18.40;99.90;;;;;;5;36016549;41270963;-88
2021/07/28 07:31:12;;;;;;;;;;;18.40;99.90;;;;;;5;36016584;41267985;-86
2021/07/28 07:34:32;;;;;;;;;;;18.40;99.90;;;;;;5;36018432;41271342;-86
2021/07/28 07:37:46;;;;;;;;;;;18.30;99.90;;;;;;5;36018392;41271550;-87
2021/07/28 07:41:04;;;;;;;;;;;18.40;99.90;;;;;;5;36018683;41271315;-87
2021/07/28 07:44:23;;;;;;;;;;;18.40;99.90;;;;;;5;36018368;41271494;-88
2021/07/28 07:47:44;;;;;;;;;;;18.50;99.90;;;;;;5;36018081;42022506;-87
2021/07/28 07:50:58;;;;;;;;;;;18.50;99.90;;;;;;5;36019304;41271108;-88
2021/07/28 07:54:16;;;;;;;;;;;18.50;99.90;;;;;;5;36017216;41271061;-87
2021/07/28 07:57:35;;;;;;;;;;;18.50;99.90;;;;;;5;36017575;41271996;-88
2021/07/28 08:00:54;;;;;;;;;;;18.50;99.90;;;;;;5;36017002;41271468;-88
2021/07/28 08:04:08;;;;;;;;;;;18.50;99.90;;;;;;5;36019172;41271611;-87
2021/07/28 08:08:03;;;;;;;;;;;18.40;99.90;;;;;;5;36018344;41272691;-88
2021/07/28 08:11:22;;;;;;;;;;;18.50;99.90;;;;;;5;36018281;41271712;-88
2021/07/28 08:14:42;;;;;;;;;;;18.40;99.90;;;;;;5;36018783;41269666;-88
2021/07/28 08:17:56;;;;;;;;;;;18.20;99.90;;;;;;5;36017737;41271393;-87
2021/07/28 08:21:15;;;;;;;;;;;18.00;99.90;;;;;;5;36018687;42022512;-89
2021/07/28 08:24:35;;;;;;;;;;;17.90;99.90;;;;;;5;36017497;41271068;-90
2021/07/28 08:27:54;;;;;;;;;;;18.00;99.90;;;;;;5;36017856;41271458;-88
2021/07/28 08:31:09;;;;;;;;;;;18.10;99.90;;;;;;5;36019013;41272060;-88
2021/07/28 08:34:26;;;;;;;;;;;18.10;99.90;;;;;;5;36017316;41269618;-89
2021/07/28 08:37:45;;;;;;;;;;;18.20;99.90;;;;;;5;36019225;41270681;-86
2021/07/28 08:41:05;;;;;;;;;;;18.10;99.90;;;;;;5;36019032;41271007;-86
2021/07/28 08:44:20;;;;;;;;;;;18.00;99.90;;;;;;5;36019608;41271780;-86
2021/07/28 08:47:37;;;;;;;;;;;18.00;99.90;;;;;;5;36019698;41271137;-86
2021/07/28 08:50:57;;;;;;;;;;;17.80;99.90;;;;;;5;36019315;41273027;-86
2021/07/28 08:54:18;;;;;;;;;;;17.80;99.90;;;;;;5;36018600;42022446;-86
2021/07/28 08:57:33;;;;;;;;;;;17.70;99.90;;;;;;5;36018680;41272044;-86
2021/07/28 09:00:50;;;;;;;;;;;17.50;99.90;;;;;;5;36017442;41270782;-87
2021/07/28 09:04:09;;;;;;;;;;;17.50;99.90;;;;;;5;36017775;41271558;-87
2021/07/28 09:07:35;;;;;;;;;;;17.40;99.90;;;;;;5;36018563;41272120;-87
2021/07/28 09:10:59;;;;;;;;;;;17.70;99.90;;;;;;5;36019596;41271211;-87
2021/07/28 09:14:19;;;;;;;;;;;17.80;99.90;;;;;;5;36019459;41270827;-86
2021/07/28 09:17:44;;;;;;;;;;;18.10;99.90;;;;;;5;36016543;41272374;-88
2021/07/28 09:21:05;;;;;;;;;;;18.30;99.90;;;;;;5;36019024;41273398;-88
2021/07/28 09:24:24;;;;;;;;;;;18.40;99.90;;;;;;5;36020134;41270752;-87
2021/07/28 09:27:45;;;;;;;;;;;18.60;99.90;;;;;;5;36018246;42021888;-86
2021/07/28 09:31:04;;;;;;;;;;;18.70;99.90;;;;;;5;36016935;41270164;-88
2021/07/28 09:34:24;;;;;;;;;;;18.80;99.90;;;;;;5;36019023;41270638;-86
2021/07/28 09:37:38;;;;;;;;;;;19.10;99.90;;;;;;5;36020093;41271932;-88
2021/07/28 09:41:14;;;;;;;;;;;19.30;99.90;;;;;;5;36019643;41270841;-89
2021/07/28 09:44:34;;;;;;;;;;;19.60;99.90;;;;;;5;36018954;41271065;-88
2021/07/28 09:47:53;;;;;;;;;;;20.00;99.90;;;;;;5;36018458;41270414;-88
2021/07/28 09:51:20;;;;;;;;;;;20.20;99.90;;;;;;5;36018844;41271926;-87
2021/07/28 09:54:37;;;;;;;;;;;20.50;99.90;;;;;;5;36016842;41271352;-88
2021/07/28 09:57:57;;;;;;;;;;;20.70;99.90;;;;;;5;36017914;41271142;-88
2021/07/28 10:01:19;;;;;;;;;;;20.80;99.90;;;;;;5;36018134;42021650;-85
2021/07/28 10:04:33;;;;;;;;;;;21.10;99.90;;;;;;5;36018175;41271531;-88
2021/07/28 10:07:51;;;;;;;;;;;21.00;99.90;;;;;;5;36019028;41271580;-88
2021/07/28 10:11:13;;;;;;;;;;;20.90;99.90;;;;;;5;36018953;41272566;-88
2021/07/28 10:14:34;;;;;;;;;;;20.80;99.90;;;;;;5;36019650;41271036;-89
2021/07/28 10:17:48;;;;;;;;;;;20.80;99.90;;;;;;5;36019398;41271611;-89
2021/07/28 10:21:05;;;;;;;;;;;20.80;99.90;;;;;;5;36018392;41269607;-86
2021/07/28 10:24:25;;;;;;;;;;;21.10;99.90;;;;;;5;36017544;41270187;-89
2021/07/28 10:27:46;;;;;;;;;;;21.20;99.90;;;;;;5;36018386;41271840;-88
2021/07/28 10:31:10;;;;;;;;;;;21.30;99.90;;;;;;5;36018306;41271224;-88
2021/07/28 10:34:33;;;;;;;;;;;21.70;99.90;;;;;;5;36017545;42021014;-88
2021/07/28 10:37:56;;;;;;;;;;;22.00;99.90;;;;;;5;36014460;41269904;-89
2021/07/28 10:41:36;;;;;;;;;;;22.10;99.90;;;;;;5;36017139;41270054;-88
2021/07/28 10:45:02;;;;;;;;;;;22.10;99.90;;;;;;5;36018398;41271444;-86
2021/07/28 10:48:38;;;;;;;;;;;22.00;99.90;;;;;;5;36018298;41272489;-88
2021/07/28 10:51:58;;;;;;;;;;;22.00;99.90;;;;;;5;36017629;41270254;-88
2021/07/28 10:55:18;;;;;;;;;;;21.60;99.90;;;;;;5;36019876;41271773;-88
2021/07/28 10:58:32;;;;;;;;;;;21.40;99.90;;;;;;5;36018796;41271935;-86
2021/07/28 11:01:52;;;;;;;;;;;21.10;99.90;;;;;;5;36017224;41271736;-86
2021/07/28 11:05:22;;;;;;;;;;;21.00;99.90;;;;;;5;36019457;41272315;-86
2021/07/28 11:08:42;;;;;;;;;;;21.00;99.90;;;;;;5;36017778;42020759;-86
2021/07/28 11:11:57;;;;;;;;;;;20.80;99.90;;;;;;5;36018229;41271832;-87
2021/07/28 11:15:18;;;;;;;;;;;20.80;99.90;;;;;;5;36017581;41271479;-87
2021/07/28 11:18:41;;;;;;;;;;;20.80;99.90;;;;;;5;36018260;41272490;-88
2021/07/28 11:22:06;;;;;;;;;;;20.90;99.90;;;;;;5;36017903;41271105;-88
2021/07/28 11:25:20;;;;;;;;;;;21.00;99.90;;;;;;5;36017809;41272314;-88
2021/07/28 11:28:37;;;;;;;;;;;20.90;99.90;;;;;;5;36017976;41272399;-88
2021/07/28 11:31:56;;;;;;;;;;;20.80;99.90;;;;;;5;36017976;41271562;-87
2021/07/28 11:35:16;;;;;;;;;;;20.80;99.90;;;;;;5;36017858;41271544;-89
2021/07/28 11:38:37;;;;;;;;;;;20.80;99.90;;;;;;5;36019383;41271905;-88
2021/07/28 11:42:01;;;;;;;;;;;20.70;99.90;;;;;;5;36019087;42021590;-88
2021/07/28 11:45:34;;;;;;;;;;;20.60;99.90;;;;;;5;36018344;41270247;-87
2021/07/28 11:48:57;;;;;;;;;;;20.50;99.90;;;;;;5;36018582;41271366;-89
2021/07/28 11:52:11;;;;;;;;;;;20.30;99.90;;;;;;5;36019201;41271362;-88
2021/07/28 11:55:31;;;;;;;;;;;20.00;99.90;;;;;;5;36017112;41271463;-88
2021/07/28 11:58:51;;;;;;;;;;;20.00;99.90;;;;;;5;36017796;41270215;-88
2021/07/28 12:02:31;;;;;;;;;;;20.00;99.90;;;;;;5;36016846;41269241;-86
2021/07/28 12:06:01;;;;;;;;;;;20.10;99.90;;;;;;5;36013722;41305351;-88
2021/07/28 12:09:25;;;;;;;;;;;20.10;99.90;;;;;;5;36018139;41266459;-88
2021/07/28 12:12:45;;;;;;;;;;;20.20;99.90;;;;;;5;36019227;41271460;-88
2021/07/28 12:16:14;;;;;;;;;;;20.30;99.90;;;;;;5;36018881;42021044;-87
2021/07/28 12:19:33;;;;;;;;;;;20.30;99.90;;;;;;5;36016659;41269734;-87
2021/07/28 12:22:56;;;;;;;;;;;20.40;99.90;;;;;;5;36017485;41270243;-87
2021/07/28 12:26:15;;;;;;;;;;;20.40;99.90;;;;;;5;36016668;41269182;-88
2021/07/28 12:29:38;;;;;;;;;;;20.40;99.90;;;;;;5;36015953;41270551;-88
2021/07/28 12:33:03;;;;;;;;;;;20.70;99.90;;;;;;5;36014684;41269009;-88
2021/07/28 12:36:27;;;;;;;;;;;20.90;99.90;;;;;;5;36015919;41270201;-88
2021/07/28 12:39:46;;;;;;;;;;;21.10;99.90;;;;;;5;36017115;41270029;-87
2021/07/28 12:43:06;;;;;;;;;;;21.20;98.30;;;;;;5;36015940;41268577;-88
2021/07/28 12:46:24;;;;;;;;;;;21.10;98.50;;;;;;5;36014484;41270701;-88
2021/07/28 12:49:43;;;;;;;;;;;21.30;98.80;;;;;;5;36017502;42018554;-86
2021/07/28 12:53:04;;;;;;;;;;;21.60;98.10;;;;;;5;36016276;41269486;-85
2021/07/28 12:56:23;;;;;;;;;;;21.50;96.30;;;;;;5;36017059;41270897;-86
2021/07/28 12:59:37;;;;;;;;;;;21.30;97.20;;;;;;5;36018326;41271515;-87
2021/07/28 13:02:55;;;;;;;;;;;21.40;98.90;;;;;;5;36019044;41269949;-87
2021/07/28 13:06:16;;;;;;;;;;;21.40;99.90;;;;;;5;36018772;41269274;-88
2021/07/28 13:09:35;;;;;;;;;;;21.40;99.10;;;;;;5;36018269;41271819;-88
2021/07/28 13:12:49;;;;;;;;;;;21.40;99.30;;;;;;5;36017917;41271138;-87
2021/07/28 13:16:07;;;;;;;;;;;21.40;98.90;;;;;;5;36014480;41268105;-89
2021/07/28 13:19:26;;;;;;;;;;;21.40;98.70;;;;;;5;36015496;41268340;-85
2021/07/28 13:22:47;;;;;;;;;;;21.50;99.60;;;;;;5;36014942;42018911;-87
2021/07/28 13:26:01;;;;;;;;;;;21.60;99.10;;;;;;5;36014852;41268062;-88
2021/07/28 13:29:19;;;;;;;;;;;21.70;97.40;;;;;;5;36017362;41268195;-89
2021/07/28 13:32:39;;;;;;;;;;;21.60;97.70;;;;;;5;36017707;41271117;-87
2021/07/28 13:35:58;;;;;;;;;;;21.90;98.00;;;;;;5;36017083;41271286;-88
2021/07/28 13:39:12;;;;;;;;;;;22.10;97.40;;;;;;5;36019257;41271473;-90
2021/07/28 13:42:30;;;;;;;;;;;22.20;97.10;;;;;;5;36018625;41270915;-89
2021/07/28 13:45:49;;;;;;;;;;;22.40;95.50;;;;;;5;36017961;41271342;-90
2021/07/28 13:49:09;;;;;;;;;;;22.60;96.30;;;;;;5;36018590;41271509;-87
2021/07/28 13:52:23;;;;;;;;;;;22.60;95.70;;;;;;5;36018580;41271220;-87
2021/07/28 13:55:42;;;;;;;;;;;22.80;94.60;;;;;;5;36018327;42021224;-88
2021/07/28 13:59:01;;;;;;;;;;;22.90;93.70;;;;;;5;36018642;41272641;-89
2021/07/28 14:02:22;;;;;;;;;;;23.20;92.90;;;;;;5;36018089;41271337;-88
2021/07/28 14:05:37;;;;;;;;;;;23.40;92.20;;;;;;5;36018093;41272740;-88
2021/07/28 14:08:56;;;;;;;;;;;23.60;92.60;;;;;;5;36018480;41271558;-89
2021/07/28 14:12:16;;;;;;;;;;;23.90;92.20;;;;;;5;36019131;41272645;-89
2021/07/28 14:15:35;;;;;;;;;;;24.20;90.40;;;;;;5;36017889;41272559;-88
2021/07/28 14:18:49;;;;;;;;;;;24.40;87.90;;;;;;5;36019436;41272630;-89
2021/07/28 14:22:07;;;;;;;;;;;24.30;88.70;;;;;;5;36017394;41270183;-87
2021/07/28 14:25:26;;;;;;;;;;;24.20;86.70;;;;;;5;36018025;41270373;-88
2021/07/28 14:28:47;;;;;;;;;;;24.10;87.30;;;;;;5;36017199;42021756;-88
2021/07/28 14:32:03;;;;;;;;;;;23.60;89.40;;;;;;5;36020088;41271083;-88
2021/07/28 14:35:20;;;;;;;;;;;23.30;90.40;;;;;;5;36017493;41272322;-88
2021/07/28 14:38:39;;;;;;;;;;;23.30;89.50;;;;;;5;36018228;41270358;-86
2021/07/28 14:41:59;;;;;;;;;;;23.10;90.40;;;;;;5;36016760;41271004;-88
2021/07/28 14:45:13;;;;;;;;;;;22.80;90.10;;;;;;5;36017769;41271162;-88
2021/07/28 14:48:30;;;;;;;;;;;22.40;91.00;;;;;;5;36018020;41270640;-88
2021/07/28 14:51:55;;;;;;;;;;;22.20;91.30;;;;;;5;36017323;41271508;-88
2021/07/28 14:55:14;;;;;;;;;;;21.80;91.70;;;;;;5;36018022;41271886;-89
2021/07/28 14:58:48;;;;;;;;;;;21.40;92.90;;;;;;5;36018763;41271269;-89
2021/07/28 15:02:07;;;;;;;;;;;21.10;93.60;;;;;;5;36019203;42019990;-87
2021/07/28 15:05:27;;;;;;;;;;;21.00;94.10;;;;;;5;36016911;41271704;-87
2021/07/28 15:08:46;;;;;;;;;;;21.00;94.90;;;;;;5;36016616;41270779;-88
2021/07/28 15:12:00;;;;;;;;;;;21.00;95.00;;;;;;5;36016694;41271155;-88
2021/07/28 15:15:17;;;;;;;;;;;20.80;95.40;;;;;;5;36019190;41272456;-87
2021/07/28 15:18:37;;;;;;;;;;;20.70;95.80;;;;;;5;36018914;41271422;-87
2021/07/28 15:21:56;;;;;;;;;;;20.60;96.40;;;;;;5;36017139;41272261;-85
2021/07/28 15:25:10;;;;;;;;;;;20.50;96.30;;;;;;5;36017487;41271126;-86
2021/07/28 15:28:28;;;;;;;;;;;20.60;96.90;;;;;;5;36019545;41271282;-85
2021/07/28 15:31:49;;;;;;;;;;;20.50;95.70;;;;;;5;36019438;41272382;-86
2021/07/28 15:35:10;;;;;;;;;;;20.30;96.00;;;;;;5;36019092;42022320;-87
2021/07/28 15:38:24;;;;;;;;;;;20.40;97.50;;;;;;5;36019977;41271094;-86
2021/07/28 15:41:41;;;;;;;;;;;20.70;97.40;;;;;;5;36017600;41272743;-87
2021/07/28 15:45:01;;;;;;;;;;;20.90;96.60;;;;;;5;36016641;41270483;-89
2021/07/28 15:48:20;;;;;;;;;;;21.10;95.50;;;;;;5;36015752;41268892;-86
2021/07/28 15:51:35;;;;;;;;;;;21.40;95.30;;;;;;5;36015630;41270098;-88
2021/07/28 15:54:52;;;;;;;;;;;21.90;93.90;;;;;;5;36016610;41270428;-88
2021/07/28 15:58:11;;;;;;;;;;;22.30;92.40;;;;;;5;36015493;41269715;-87
2021/07/28 16:01:31;;;;;;;;;;;22.20;91.50;;;;;;5;36014247;41268926;-85
2021/07/28 16:04:46;;;;;;;;;;;22.10;91.60;;;;;;5;36017507;41269769;-88
2021/07/28 16:08:04;;;;;;;;;;;21.90;91.80;;;;;;5;36018198;42020284;-89
2021/07/28 16:11:24;;;;;;;;;;;21.80;92.70;;;;;;5;36018488;41271313;-88
2021/07/28 16:14:48;;;;;;;;;;;21.80;92.90;;;;;;5;36020742;41270460;-90
2021/07/28 16:18:21;;;;;;;;;;;21.90;92.40;;;;;;5;36019583;41271776;-88
2021/07/28 16:21:38;;;;;;;;;;;21.80;92.50;;;;;;5;36017959;41271128;-88
2021/07/28 16:24:58;;;;;;;;;;;21.60;92.70;;;;;;5;36017212;41271227;-88
2021/07/28 16:28:19;;;;;;;;;;;21.30;93.00;;;;;;5;36018913;41270491;-88
2021/07/28 16:31:33;;;;;;;;;;;21.20;93.60;;;;;;5;36019044;41270284;-88
2021/07/28 16:34:52;;;;;;;;;;;21.00;93.20;;;;;;5;36016299;41271135;-87
2021/07/28 16:38:12;;;;;;;;;;;20.90;94.00;;;;;;5;36017637;41272432;-88
2021/07/28 16:41:33;;;;;;;;;;;20.90;93.50;;;;;;5;36017859;42020591;-88
2021/07/28 16:44:47;;;;;;;;;;;21.00;94.00;;;;;;5;36019248;41270354;-87
2021/07/28 16:48:04;;;;;;;;;;;21.00;93.70;;;;;;5;36017568;41271009;-88
2021/07/28 16:51:24;;;;;;;;;;;20.90;94.70;;;;;;5;36018013;41271457;-89
2021/07/28 16:54:43;;;;;;;;;;;20.80;93.90;;;;;;5;36016511;41270230;-90
2021/07/28 16:57:57;;;;;;;;;;;20.80;93.20;;;;;;5;36018507;41272451;-87
2021/07/28 17:01:14;;;;;;;;;;;20.90;93.70;;;;;;5;36017164;41270643;-88
2021/07/28 17:04:34;;;;;;;;;;;20.80;92.90;;;;;;5;36017047;41270972;-89
2021/07/28 17:07:53;;;;;;;;;;;20.80;93.20;;;;;;5;36019019;41270285;-88
2021/07/28 17:11:07;;;;;;;;;;;20.80;92.90;;;;;;5;36017778;41269020;-88
2021/07/28 17:14:26;;;;;;;;;;;20.80;93.30;;;;;;5;36016964;42020698;-86
2021/07/28 17:17:46;;;;;;;;;;;20.80;92.80;;;;;;5;36018796;41270553;-87
2021/07/28 17:21:05;;;;;;;;;;;20.80;93.30;;;;;;5;36018292;41271080;-86
2021/07/28 17:24:19;;;;;;;;;;;21.00;92.90;;;;;;5;36018412;41270487;-86
2021/07/28 17:27:37;;;;;;;;;;;21.00;93.80;;;;;;5;36017768;41271726;-86
2021/07/28 17:30:56;;;;;;;;;;;20.90;93.40;;;;;;5;36017991;41271804;-86
2021/07/28 17:34:16;;;;;;;;;;;20.90;94.00;;;;;;5;36016217;41270004;-88
2021/07/28 17:37:33;;;;;;;;;;;20.90;94.70;;;;;;5;36018040;41271414;-88
2021/07/28 17:40:51;;;;;;;;;;;20.80;95.50;;;;;;5;36019997;41271422;-87
2021/07/28 17:44:11;;;;;;;;;;;20.70;96.10;;;;;;5;36019182;41271060;-88
2021/07/28 17:47:32;;;;;;;;;;;20.60;96.80;;;;;;5;36016619;42021544;-88
2021/07/28 17:50:47;;;;;;;;;;;20.70;97.40;;;;;;5;36017419;41270738;-88
2021/07/28 17:54:05;;;;;;;;;;;20.70;97.70;;;;;;5;36017022;41272542;-87
2021/07/28 17:57:24;;;;;;;;;;;20.70;97.50;;;;;;5;36017333;41271236;-86
2021/07/28 18:00:44;;;;;;;;;;;20.70;97.80;;;;;;5;36017551;41271570;-89
2021/07/28 18:04:04;;;;;;;;;;;20.60;97.70;;;;;;5;36018415;41271232;-87
2021/07/28 18:07:24;;;;;;;;;;;20.50;97.90;;;;;;5;36019489;41271584;-87
2021/07/28 18:10:43;;;;;;;;;;;20.40;98.40;;;;;;5;36019055;41271630;-88
2021/07/28 18:14:03;;;;;;;;;;;20.30;98.80;;;;;;5;36018776;41271529;-88
2021/07/28 18:17:17;;;;;;;;;;;20.20;98.50;;;;;;5;36017611;41271251;-88
2021/07/28 18:20:36;;;;;;;;;;;20.20;98.10;;;;;;5;36018368;42020420;-87
2021/07/28 18:23:55;;;;;;;;;;;20.10;98.10;;;;;;5;36017930;41270539;-88
2021/07/28 18:27:16;;;;;;;;;;;20.10;98.30;;;;;;5;36018522;41270708;-88
2021/07/28 18:30:30;;;;;;;;;;;20.00;98.40;;;;;;5;36018118;41272090;-88
2021/07/28 18:33:47;;;;;;;;;;;19.90;98.70;;;;;;5;36019008;41269229;-87
2021/07/28 18:37:07;;;;;;;;;;;19.90;99.00;;;;;;5;36017695;41271706;-88
2021/07/28 18:40:27;;;;;;;;;;;19.80;99.40;;;;;;5;36018836;41271488;-88
2021/07/28 18:43:41;;;;;;;;;;;19.70;99.90;;;;;;5;36017848;41271712;-87
2021/07/28 18:46:58;;;;;;;;;;;19.60;99.90;;;;;;5;36016347;41271633;-87
2021/07/28 18:50:17;;;;;;;;;;;19.50;99.90;;;;;;5;36016368;41270665;-87
2021/07/28 18:53:38;;;;;;;;;;;19.40;99.90;;;;;;5;36017719;42022531;-88
2021/07/28 18:56:52;;;;;;;;;;;19.30;99.90;;;;;;5;36018203;41271217;-88
2021/07/28 19:00:10;;;;;;;;;;;19.30;99.90;;;;;;5;36017383;41269824;-88
2021/07/28 19:03:29;;;;;;;;;;;19.20;99.90;;;;;;5;36018187;41270854;-88
2021/07/28 19:06:49;;;;;;;;;;;19.10;99.90;;;;;;5;36018169;41270638;-89
2021/07/28 19:10:03;;;;;;;;;;;19.00;99.90;;;;;;5;36016840;41271925;-88
2021/07/28 19:13:20;;;;;;;;;;;18.90;99.90;;;;;;5;36017169;41269511;-88
2021/07/28 19:16:40;;;;;;;;;;;18.90;99.90;;;;;;5;36016831;41271080;-87
2021/07/28 19:20:00;;;;;;;;;;;18.90;99.90;;;;;;5;36017062;41270994;-87
2021/07/28 19:23:14;;;;;;;;;;;18.90;99.90;;;;;;5;36018585;41271523;-88
2021/07/28 19:26:36;;;;;;;;;;;18.80;99.90;;;;;;5;36018205;42020686;-87
2021/07/28 19:29:56;;;;;;;;;;;18.80;99.90;;;;;;5;36017368;41270200;-86
2021/07/28 19:33:16;;;;;;;;;;;18.80;99.90;;;;;;5;36017817;41270849;-88
2021/07/28 19:36:31;;;;;;;;;;;18.80;99.90;;;;;;5;36019355;41272556;-88
2021/07/28 19:39:49;;;;;;;;;;;18.80;99.90;;;;;;5;36017025;41269976;-89
2021/07/28 19:43:08;;;;;;;;;;;18.80;99.90;;;;;;5;36019108;41270336;-88
2021/07/28 19:46:27;;;;;;;;;;;18.90;99.90;;;;;;5;36017883;41269337;-88
2021/07/28 19:49:42;;;;;;;;;;;18.90;99.90;;;;;;5;36017433;41270062;-88
2021/07/28 19:52:59;;;;;;;;;;;19.00;99.80;;;;;;5;36017253;41269365;-87
2021/07/28 19:56:19;;;;;;;;;;;19.00;99.70;;;;;;5;36018946;41272378;-88
2021/07/28 19:59:40;;;;;;;;;;;19.00;99.40;;;;;;5;36019406;42022374;-88
2021/07/28 20:02:54;;;;;;;;;;;19.00;98.90;;;;;;5;36018601;41271430;-87
2021/07/28 20:06:11;;;;;;;;;;;19.00;98.90;;;;;;5;36019569;41269807;-86
2021/07/28 20:09:31;;;;;;;;;;;19.00;99.90;;;;;;5;36018008;41272012;-86
2021/07/28 20:12:51;;;;;;;;;;;18.90;99.90;;;;;;5;36018870;41271473;-86
2021/07/28 20:16:05;;;;;;;;;;;18.80;99.90;;;;;;5;36018124;41270751;-86
2021/07/28 20:19:22;;;;;;;;;;;18.70;99.90;;;;;;5;36018633;41271965;-85
2021/07/28 20:22:41;;;;;;;;;;;18.60;99.90;;;;;;5;36020476;41272427;-86
2021/07/28 20:26:01;;;;;;;;;;;18.50;99.90;;;;;;5;36020053;41272568;-88
2021/07/28 20:29:15;;;;;;;;;;;18.50;99.90;;;;;;5;36018800;41272361;-87
2021/07/28 20:32:40;;;;;;;;;;;18.40;99.90;;;;;;5;36018395;42022944;-88
2021/07/28 20:36:00;;;;;;;;;;;18.40;99.90;;;;;;5;36019144;41272421;-86
2021/07/28 20:39:19;;;;;;;;;;;18.40;99.90;;;;;;5;36016044;41271574;-86
2021/07/28 20:42:35;;;;;;;;;;;18.50;99.90;;;;;;5;36020051;41272041;-85
2021/07/28 20:45:52;;;;;;;;;;;18.50;99.90;;;;;;5;36018616;41271284;-86
2021/07/28 20:49:12;;;;;;;;;;;18.60;99.90;;;;;;5;36019214;41272036;-88
2021/07/28 20:52:33;;;;;;;;;;;18.60;99.90;;;;;;5;36018627;41271795;-87
2021/07/28 20:55:47;;;;;;;;;;;18.60;99.90;;;;;;5;36017906;41271104;-87
2021/07/28 20:59:04;;;;;;;;;;;18.60;99.90;;;;;;5;36019475;41271565;-88
2021/07/28 21:02:24;;;;;;;;;;;18.60;99.90;;;;;;5;36018172;41269810;-88
2021/07/28 21:05:45;;;;;;;;;;;18.50;99.90;;;;;;5;36020374;42021459;-88
2021/07/28 21:08:59;;;;;;;;;;;18.50;99.90;;;;;;5;36018403;41271601;-88
2021/07/28 21:12:17;;;;;;;;;;;18.40;99.90;;;;;;5;36014721;41268204;-89
2021/07/28 21:15:36;;;;;;;;;;;18.40;99.90;;;;;;5;36016622;41267071;-89